38.ac.cn alexa rank chart, 38.ac.cn alexa rank daily changes

38.ac.cn alexa rank chart, 38.ac.cn alexa rank daily changes

38.ac.cn
Actual rank:
334 405

RANK HISTORY

Date Rank Diff
2017/08/20 334 405 -8 114
2017/08/19 342 519 -443
2017/08/18 342 962 +1 339
2017/08/17 341 623 +520
2017/08/16 341 103 +128
2017/08/15 340 975 +8 114
2017/08/14 332 861 +9 105
2017/08/13 323 756 +9 401
2017/08/12 314 355 -27 283
2017/08/11 341 638 +1 007
2017/08/10 340 631 +1 048
2017/08/09 339 583 +2 548
2017/08/08 337 035 -3 939
2017/08/07 340 974 +7 246
2017/08/06 333 728 +8 229
2017/08/05 325 499 -153
2017/08/04 325 652 -16 432
2017/08/03 342 084 +10 366
2017/08/02 331 718 +7 382
2017/08/01 324 336 -20 903
2017/07/31 345 239 -12 272
2017/07/30 357 511 +7 421
2017/07/29 350 090 -14 995
2017/07/28 365 085 -6 721
2017/07/27 371 806 +5 511
2017/07/26 366 295 +12 390
2017/07/25 353 905 -18 161
2017/07/24 372 066 -13 957
2017/07/23 386 023 -4 808
2017/07/22 390 831 -7 775
2017/07/21 398 606 -11 362
2017/07/20 409 968 +23 174
2017/07/19 386 794 +13 500
2017/07/18 373 294 +7 946
2017/07/17 365 348 -21 782
2017/07/16 387 130 +17 770
2017/07/15 369 360 -10 227
2017/07/14 379 587 +22 472
2017/07/13 357 115 -2 764
2017/07/12 359 879 -6 840
2017/07/11 366 719 -969
2017/07/10 367 688 +46 683
2017/07/09 321 005 -2 604
2017/07/08 323 609 -3 987
2017/07/07 327 596 -25 127
2017/07/06 352 723 +6 924
2017/07/05 345 799 +1 530
2017/07/04 344 269 -10 339
2017/07/03 354 608 +2 206
2017/07/02 352 402 -9 020
2017/07/01 361 422 -1 531
2017/06/30 362 953 -7 103
2017/06/29 370 056 -13 368
2017/06/28 383 424 +16 774
2017/06/27 366 650 -8 188
2017/06/26 374 838 -10 555
2017/06/25 385 393 +19 427
2017/06/24 365 966 -76
2017/06/23 366 042 -3 185
2017/06/22 369 227 +7 138
2017/06/21 362 089

WIDGET FOR YOUR SITE

DOMAINS WITH THE NEAREST RANK

Domain Rank
chizi.cc 334 400
valleybreeze.com 334 401
redattoresociale.it 334 402
2gazon.ru 334 403
gamesoft.com.cn 334 404
38.ac.cn 334 405
noticiacla.com 334 406
wehago.com 334 407
vivre.hr 334 408
playstore.one 334 409
okayfiles.com 334 410

DOMAINS WITH THE NEAREST RANK BY TLD .ac.cn

Domain Rank
sibcb.ac.cn 331 285
spaces.ac.cn 333 883
38.ac.cn 334 405